Time;durP1;ratioP1;P1;durP2;ratioP2;P2;SDS_P1;SDS_P2;PMS_P1;PMS_P2;Temp;Humidity;BMP_temperature;BMP_pressure;BME280_temperature;BME280_humidity;BME280_pressure;Samples;Min_cycle;Max_cycle;Signal;HPM_P1;HPM_P2
2022/01/16 00:04:11;;;;;;;46.45;19.73;;;2.10;99.90;;;;;;4978007;28;20500;-75
2022/01/16 00:06:45;;;;;;;42.35;18.65;;;2.20;99.90;;;;;;4971858;28;20126;-74
2022/01/16 00:11:46;;;;;;;36.45;16.58;;;2.10;99.90;;;;;;5456341;23;20045;-75
2022/01/16 00:14:11;;;;;;;;;;;2.20;99.90;;;;;;5016293;28;20409;-75
2022/01/16 00:16:40;;;;;;;45.85;19.88;;;2.20;99.90;;;;;;5014765;28;19927;-75
2022/01/16 00:19:06;;;;;;;;;;;2.20;99.90;;;;;;5014341;28;20045;-75
2022/01/16 00:21:38;;;;;;;44.33;18.80;;;2.20;99.90;;;;;;5032352;28;19920;-76
2022/01/16 00:24:05;;;;;;;47.92;19.55;;;2.20;99.90;;;;;;5013614;28;20049;-76
2022/01/16 00:26:30;;;;;;;46.65;19.02;;;2.40;99.90;;;;;;5012909;28;20041;-76
2022/01/16 00:28:56;;;;;;;;;;;2.50;99.90;;;;;;5015068;28;20049;-75
2022/01/16 00:31:23;;;;;;;44.78;19.48;;;2.40;99.90;;;;;;5014006;28;19964;-75
2022/01/16 00:33:52;;;;;;;45.35;19.23;;;2.40;99.90;;;;;;5015204;28;20397;-75
2022/01/16 00:36:19;;;;;;;47.38;19.10;;;2.50;99.90;;;;;;5033400;28;20071;-75
2022/01/16 00:38:46;;;;;;;51.25;20.45;;;2.60;99.90;;;;;;5016280;28;20045;-76
2022/01/16 00:41:13;;;;;;;51.63;19.15;;;2.70;99.90;;;;;;5027940;28;20069;-76
2022/01/16 00:43:39;;;;;;;54.03;24.33;;;2.60;99.90;;;;;;5009463;28;20053;-73
2022/01/16 00:46:05;;;;;;;56.50;20.85;;;2.60;99.90;;;;;;5018549;23;20033;-74
2022/01/16 00:48:30;;;;;;;;;;;2.70;99.90;;;;;;5033405;28;20154;-74
2022/01/16 00:50:56;;;;;;;51.55;22.10;;;2.60;99.90;;;;;;5014845;28;19928;-74
2022/01/16 00:53:22;;;;;;;;;;;2.50;99.90;;;;;;5013932;28;20042;-74
2022/01/16 00:55:47;;;;;;;60.75;27.63;;;2.40;99.90;;;;;;5014853;28;19921;-73
2022/01/16 00:58:13;;;;;;;;;;;2.40;99.90;;;;;;5012183;28;20034;-75
2022/01/16 01:00:39;;;;;;;45.45;19.98;;;2.50;99.90;;;;;;5013738;28;20266;-74
2022/01/16 01:03:06;;;;;;;55.17;22.70;;;2.40;99.90;;;;;;5033339;28;20099;-75
2022/01/16 01:05:35;;;;;;;59.92;24.48;;;2.50;99.90;;;;;;5014396;28;20041;-75
2022/01/16 01:08:02;;;;;;;48.60;19.52;;;2.50;99.90;;;;;;5024054;28;20049;-74
2022/01/16 01:10:32;;;;;;;61.00;22.15;;;2.60;99.90;;;;;;5005057;28;20404;-75
2022/01/16 01:13:10;;;;;;;56.10;22.35;;;2.50;99.90;;;;;;5012238;28;20041;-74
2022/01/16 01:15:46;;;;;;;65.53;26.73;;;2.60;99.90;;;;;;5015401;28;20045;-74
2022/01/16 01:18:13;;;;;;;63.95;23.85;;;2.20;99.90;;;;;;5012091;28;20481;-74
2022/01/16 01:20:42;;;;;;;65.10;23.80;;;2.40;99.90;;;;;;5027793;28;20041;-75
2022/01/16 01:23:09;;;;;;;65.85;22.67;;;2.40;99.90;;;;;;5014203;28;20143;-74
2022/01/16 01:25:36;;;;;;;77.07;25.02;;;2.30;99.90;;;;;;5014891;28;20180;-75
2022/01/16 01:28:02;;;;;;;59.97;21.70;;;2.30;99.90;;;;;;5033158;28;20041;-75
2022/01/16 01:30:28;;;;;;;;;;;2.30;99.90;;;;;;5015481;28;20475;-74
2022/01/16 01:32:55;;;;;;;317.98;146.73;;;2.30;99.90;;;;;;5015020;28;20017;-74
2022/01/16 01:35:24;;;;;;;147.05;70.85;;;2.30;99.90;;;;;;5014278;28;20068;-75
2022/01/16 01:37:49;;;;;;;190.45;89.15;;;2.30;99.90;;;;;;5032560;28;20136;-75
2022/01/16 01:40:20;;;;;;;;;;;2.30;99.90;;;;;;5014444;28;20172;-75
2022/01/16 01:51:31;;;;;;;58.38;21.60;;;2.40;99.90;;;;;;5014801;28;20489;-74
2022/01/16 01:53:57;;;;;;;72.95;25.65;;;2.50;99.90;;;;;;5014737;28;20049;-75
2022/01/16 01:56:25;;;;;;;77.68;25.95;;;2.50;99.90;;;;;;5014117;28;20060;-75
2022/01/16 01:58:52;;;;;;;73.68;22.48;;;2.50;99.90;;;;;;5014927;28;20101;-75
2022/01/16 02:01:17;;;;;;;71.75;24.70;;;2.60;99.90;;;;;;5014110;28;20057;-74
2022/01/16 02:03:43;;;;;;;;;;;2.60;99.90;;;;;;5015471;28;20042;-75
2022/01/16 02:06:19;;;;;;;60.90;23.02;;;2.70;99.90;;;;;;5032340;28;19925;-75
2022/01/16 02:08:47;;;;;;;63.00;23.70;;;2.70;99.90;;;;;;5014582;28;20465;-75
2022/01/16 02:11:15;;;;;;;64.57;22.65;;;2.70;99.90;;;;;;5014709;28;20054;-74
2022/01/16 02:13:51;;;;;;;73.22;26.05;;;2.70;99.90;;;;;;5031859;28;20431;-75
2022/01/16 02:35:09;;;;;;;;;;;2.90;99.90;;;;;;4995267;28;20471;-74
2022/01/16 02:37:35;;;;;;;83.60;24.83;;;2.90;99.90;;;;;;5011672;28;19973;-74
2022/01/16 02:40:08;;;;;;;;;;;2.90;99.90;;;;;;4996544;28;20112;-74
2022/01/16 02:42:38;;;;;;;77.00;22.95;;;2.80;99.90;;;;;;4995210;28;20365;-76
2022/01/16 02:45:06;;;;;;;68.40;26.10;;;3.00;99.90;;;;;;5012172;28;20095;-75
2022/01/16 02:47:32;;;;;;;86.15;27.42;;;3.00;99.90;;;;;;4994430;28;20053;-75
2022/01/16 02:50:00;;;;;;;77.60;26.15;;;3.10;99.90;;;;;;4996043;28;20042;-76
2022/01/16 02:52:26;;;;;;;76.78;24.90;;;3.10;99.90;;;;;;4998440;28;20053;-75
2022/01/16 02:54:54;;;;;;;;;;;3.20;99.90;;;;;;5000117;28;20401;-75
2022/01/16 02:57:21;;;;;;;69.65;25.52;;;3.10;99.90;;;;;;5016837;28;20278;-75
2022/01/16 02:59:49;;;;;;;75.93;25.52;;;3.20;99.90;;;;;;5018742;28;20052;-75
2022/01/16 03:02:17;;;;;;;78.22;27.17;;;3.30;99.90;;;;;;5017928;28;20124;-75
2022/01/16 03:04:42;;;;;;;81.57;27.60;;;3.40;99.90;;;;;;5014420;28;20468;-75
2022/01/16 03:07:08;;;;;;;;;;;3.40;99.90;;;;;;5014785;28;20054;-75
2022/01/16 03:09:56;;;;;;;82.95;26.90;;;3.40;99.90;;;;;;5016091;28;20284;-75
2022/01/16 03:12:23;;;;;;;71.95;25.05;;;3.40;99.90;;;;;;5001558;28;20132;-75
2022/01/16 03:14:48;;;;;;;80.20;23.95;;;3.40;99.90;;;;;;5035796;28;20045;-75
2022/01/16 03:21:52;;;;;;;;;;;3.50;99.90;;;;;;5017955;28;20096;-75
2022/01/16 03:23:06;;;;;;;80.70;28.48;;;3.50;99.90;;;;;;5035394;28;20049;-75
2022/01/16 03:25:31;;;;;;;;;;;3.50;99.90;;;;;;5018224;28;20048;-75
2022/01/16 03:27:57;;;;;;;82.25;27.38;;;3.50;99.90;;;;;;5018136;28;19917;-75
2022/01/16 03:30:23;;;;;;;;;;;3.60;99.90;;;;;;5014774;28;20414;-74
2022/01/16 03:32:48;;;;;;;75.72;26.88;;;3.50;99.90;;;;;;5014776;28;20365;-75
2022/01/16 03:35:13;;;;;;;;;;;3.60;99.90;;;;;;5014862;28;20482;-75
2022/01/16 03:37:40;;;;;;;74.13;25.98;;;3.70;99.90;;;;;;4998227;28;20365;-75
2022/01/16 03:40:10;;;;;;;84.72;29.50;;;3.70;99.90;;;;;;4997181;28;20096;-74
2022/01/16 03:42:37;;;;;;;84.50;26.58;;;3.70;99.90;;;;;;4998026;28;20452;-75
2022/01/16 03:45:04;;;;;;;78.03;27.30;;;3.80;99.90;;;;;;5012848;28;20045;-75
2022/01/16 03:47:30;;;;;;;86.35;31.15;;;3.70;99.90;;;;;;5012779;28;20053;-75
2022/01/16 03:49:56;;;;;;;;;;;3.60;99.90;;;;;;5015923;28;20044;-75
2022/01/16 03:52:24;;;;;;;81.28;27.30;;;3.70;99.90;;;;;;4997409;28;20369;-75
2022/01/16 03:54:50;;;;;;;86.93;28.98;;;3.60;99.90;;;;;;5014812;28;20038;-75
2022/01/16 03:57:16;;;;;;;;;;;3.60;99.90;;;;;;4997622;28;20544;-75
2022/01/16 03:59:41;;;;;;;80.25;28.08;;;3.60;99.90;;;;;;5015235;28;19944;-75
2022/01/16 04:02:07;;;;;;;;;;;3.70;99.90;;;;;;5014900;28;20604;-75
2022/01/16 04:04:32;;;;;;;73.68;27.58;;;3.80;99.90;;;;;;5017320;28;20284;-75
2022/01/16 04:06:59;;;;;;;;;;;3.80;99.90;;;;;;5017949;28;20045;-74
2022/01/16 04:09:26;;;;;;;78.07;28.15;;;3.80;99.90;;;;;;5016436;28;19928;-75
2022/01/16 04:11:54;;;;;;;82.18;29.05;;;3.70;99.90;;;;;;5017127;28;20042;-75
2022/01/16 04:14:24;;;;;;;75.63;28.55;;;3.80;99.90;;;;;;5012377;28;20054;-74
2022/01/16 04:16:52;;;;;;;80.80;29.15;;;3.80;99.90;;;;;;5015208;28;20100;-75
2022/01/16 04:19:18;;;;;;;83.45;30.38;;;3.70;99.90;;;;;;4997103;28;20528;-75
2022/01/16 04:21:47;;;;;;;75.18;26.60;;;3.80;99.90;;;;;;5014684;28;20079;-75
2022/01/16 04:24:18;;;;;;;78.00;28.15;;;3.80;99.90;;;;;;5005302;28;20049;-75
2022/01/16 04:26:44;;;;;;;79.28;29.63;;;3.90;99.90;;;;;;5016505;28;20072;-75
2022/01/16 04:29:09;;;;;;;;;;;3.90;99.90;;;;;;5034320;28;20118;-75
2022/01/16 04:31:35;;;;;;;72.10;27.48;;;3.90;99.90;;;;;;5016800;28;19921;-75
2022/01/16 04:34:00;;;;;;;;;;;3.90;99.90;;;;;;5017062;28;20596;-74
2022/01/16 04:36:26;;;;;;;72.55;28.38;;;4.00;99.90;;;;;;5033714;28;20323;-75
2022/01/16 04:38:52;;;;;;;;;;;3.90;99.90;;;;;;5016959;28;20404;-76
2022/01/16 04:44:04;;;;;;;73.75;28.98;;;3.90;99.90;;;;;;5033787;28;20048;-75
2022/01/16 04:46:33;;;;;;;63.92;24.75;;;4.00;99.90;;;;;;5033511;28;20072;-75
2022/01/16 04:49:01;;;;;;;66.15;28.65;;;4.10;99.90;;;;;;5014828;28;20085;-75
2022/01/16 04:51:31;;;;;;;70.88;27.35;;;4.10;99.90;;;;;;5015434;28;20049;-76
2022/01/16 04:53:57;;;;;;;71.30;27.13;;;4.10;99.90;;;;;;5016675;28;20034;-75
2022/01/16 04:56:22;;;;;;;;;;;4.10;99.90;;;;;;5015436;28;20531;-75
2022/01/16 04:58:48;;;;;;;73.13;28.58;;;4.10;99.90;;;;;;5016328;28;19928;-76
2022/01/16 05:01:15;;;;;;;;;;;4.10;99.90;;;;;;5016364;28;20485;-75
2022/01/16 05:03:40;;;;;;;69.22;28.73;;;4.00;99.90;;;;;;5015879;28;19928;-75
2022/01/16 05:06:07;;;;;;;;;;;4.10;99.90;;;;;;5016022;28;20049;-75
2022/01/16 05:08:33;;;;;;;65.68;27.13;;;4.10;99.90;;;;;;5015855;28;20459;-76
2022/01/16 05:11:00;;;;;;;75.88;28.92;;;4.20;99.90;;;;;;5033392;28;20041;-76
2022/01/16 05:16:35;;;;;;;78.68;28.67;;;4.10;99.90;;;;;;5015321;28;20407;-75
2022/01/16 05:19:07;;;;;;;74.03;27.73;;;4.10;99.90;;;;;;5015146;28;20405;-75
2022/01/16 05:21:33;;;;;;;71.00;29.02;;;4.10;99.90;;;;;;5033640;28;20045;-75
2022/01/16 05:23:59;;;;;;;72.18;30.10;;;4.00;99.90;;;;;;5015678;28;20409;-76
2022/01/16 05:26:27;;;;;;;;;;;4.00;99.90;;;;;;5014910;28;20037;-76
2022/01/16 05:28:55;;;;;;;66.30;26.27;;;4.00;99.90;;;;;;5015826;28;19917;-76
2022/01/16 05:31:22;;;;;;;71.13;27.92;;;4.00;99.90;;;;;;5015235;28;20049;-76
2022/01/16 05:33:47;;;;;;;67.90;27.40;;;4.10;99.90;;;;;;5015356;28;20102;-75
2022/01/16 05:36:13;;;;;;;;;;;4.10;99.90;;;;;;5033217;28;20038;-76
2022/01/16 05:38:38;;;;;;;77.60;29.17;;;4.10;99.90;;;;;;5015040;28;19986;-75
2022/01/16 05:41:04;;;;;;;;;;;4.10;99.90;;;;;;5033587;28;20475;-75
2022/01/16 05:43:29;;;;;;;69.05;27.60;;;4.10;99.90;;;;;;5014958;28;19921;-76
2022/01/16 05:45:55;;;;;;;;;;;4.10;99.90;;;;;;5014944;28;20500;-76
2022/01/16 05:48:20;;;;;;;63.08;26.10;;;4.20;99.90;;;;;;5014883;28;20257;-75
2022/01/16 05:50:46;;;;;;;;;;;4.20;99.90;;;;;;5015619;28;20072;-75
2022/01/16 05:53:12;;;;;;;58.63;25.02;;;4.20;99.90;;;;;;5010446;28;20016;-76
2022/01/16 05:55:37;;;;;;;;;;;4.20;99.90;;;;;;4995951;28;20401;-75
2022/01/16 05:58:05;;;;;;;58.95;26.10;;;4.30;99.90;;;;;;4995526;28;19980;-76
2022/01/16 06:00:31;;;;;;;55.33;25.85;;;4.30;99.90;;;;;;4995384;28;20049;-75
2022/01/16 06:02:56;;;;;;;;;;;4.30;99.90;;;;;;4995975;28;20500;-76
2022/01/16 06:05:22;;;;;;;57.38;25.67;;;4.30;99.90;;;;;;4995750;28;20021;-76
2022/01/16 06:08:00;;;;;;;57.13;26.50;;;4.40;99.90;;;;;;4994818;28;20511;-76
2022/01/16 06:10:26;;;;;;;56.70;24.95;;;4.40;99.90;;;;;;5012831;28;20490;-76
2022/01/16 06:12:53;;;;;;;55.08;24.80;;;4.50;99.90;;;;;;4996573;28;20485;-75
2022/01/16 06:15:19;;;;;;;47.22;23.45;;;4.50;99.90;;;;;;5014304;28;20043;-76
2022/01/16 06:17:45;;;;;;;47.28;24.08;;;4.50;99.90;;;;;;5032646;28;20143;-76
2022/01/16 06:20:11;;;;;;;;;;;4.60;99.90;;;;;;5015267;28;20128;-76
2022/01/16 06:22:36;;;;;;;42.15;21.88;;;4.70;99.90;;;;;;5031929;28;20327;-76
2022/01/16 06:25:02;;;;;;;;;;;4.80;99.90;;;;;;5015339;28;20072;-76
2022/01/16 06:27:27;;;;;;;42.00;20.70;;;4.80;99.90;;;;;;5014165;28;20273;-76
2022/01/16 06:29:53;;;;;;;;;;;4.90;99.90;;;;;;5014681;28;20378;-76
2022/01/16 06:32:18;;;;;;;38.55;19.90;;;4.90;99.90;;;;;;5032594;28;19967;-76
2022/01/16 06:34:44;;;;;;;;;;;4.90;99.90;;;;;;5015157;28;20446;-76
2022/01/16 06:37:10;;;;;;;30.42;16.52;;;4.90;99.90;;;;;;5014057;28;19921;-76
2022/01/16 06:39:35;;;;;;;;;;;5.00;99.90;;;;;;5015392;28;20045;-76
2022/01/16 06:42:01;;;;;;;32.70;16.08;;;5.00;99.90;;;;;;5014076;28;19926;-76
2022/01/16 06:44:26;;;;;;;;;;;5.00;99.90;;;;;;5015186;28;20124;-76
2022/01/16 06:46:52;;;;;;;33.20;16.55;;;5.00;99.90;;;;;;5014699;28;20364;-76
2022/01/16 06:49:17;;;;;;;;;;;5.10;99.90;;;;;;5014243;28;20050;-76
2022/01/16 06:51:43;;;;;;;34.38;17.35;;;4.80;99.90;;;;;;5014590;28;19925;-76
2022/01/16 06:54:08;;;;;;;;;;;5.10;99.90;;;;;;5015070;28;20444;-76
2022/01/16 06:56:34;;;;;;;;;;;5.10;99.90;;;;;;5010618;28;19971;-76
2022/01/16 06:58:59;;;;;;;;;;;5.10;99.90;;;;;;4995181;28;19925;-76
2022/01/16 07:01:26;;;;;;;;;;;5.10;99.90;;;;;;5012717;28;19925;-76
2022/01/16 07:03:53;;;;;;;;;;;5.10;99.90;;;;;;4994854;28;19929;-76
2022/01/16 07:06:19;;;;;;;;;;;5.10;99.90;;;;;;4994755;28;19940;-76
2022/01/16 07:08:45;;;;;;;;;;;5.10;99.90;;;;;;5012873;28;19929;-76
2022/01/16 07:11:11;;;;;;;;;;;5.10;99.90;;;;;;5000722;28;19968;-76
2022/01/16 07:13:36;;;;;;;;;;;5.10;99.90;;;;;;5011832;28;20274;-76
2022/01/16 07:16:02;;;;;;;;;;;5.10;99.90;;;;;;4995387;28;19972;-76
2022/01/16 07:18:30;;;;;;;;;;;5.10;99.90;;;;;;4994094;28;19921;-75
2022/01/16 07:20:56;;;;;;;;;;;5.00;99.90;;;;;;4994693;28;20007;-75
2022/01/16 07:23:22;;;;;;;;;;;5.00;99.90;;;;;;4994298;28;20032;-76
2022/01/16 07:25:48;;;;;;;;;;;5.10;99.90;;;;;;4995359;28;19972;-76
2022/01/16 07:28:16;;;;;;;;;;;5.10;99.90;;;;;;5010840;28;19921;-75
2022/01/16 07:30:42;;;;;;;;;;;5.00;99.90;;;;;;5012685;28;20348;-76
2022/01/16 07:33:08;;;;;;;;;;;5.00;99.90;;;;;;4993739;28;20017;-75
2022/01/16 07:35:35;;;;;;;;;;;5.00;99.90;;;;;;5021719;28;20273;-76
2022/01/16 07:38:00;;;;;;;;;;;5.00;99.90;;;;;;5013712;28;19921;-76
2022/01/16 07:40:27;;;;;;;;;;;5.00;99.90;;;;;;4997567;28;19932;-76
2022/01/16 07:42:52;;;;;;;;;;;5.00;99.90;;;;;;4998452;28;19921;-76
2022/01/16 07:45:20;;;;;;;;;;;5.00;99.90;;;;;;4997357;28;19932;-76
2022/01/16 07:47:46;;;;;;;;;;;5.00;99.90;;;;;;4997807;28;19960;-77
2022/01/16 07:50:15;;;;;;;;;;;5.00;99.90;;;;;;4997991;28;19996;-76
2022/01/16 07:52:41;;;;;;;;;;;5.10;99.90;;;;;;4997715;28;20365;-77
2022/01/16 07:55:06;;;;;;;;;;;5.10;99.90;;;;;;4997896;28;19928;-76
2022/01/16 07:57:32;;;;;;;;;;;5.20;99.90;;;;;;4997867;28;19984;-76
2022/01/16 08:00:00;;;;;;;;;;;5.20;99.90;;;;;;4997426;28;20023;-76
2022/01/16 08:02:26;;;;;;;;;;;5.30;99.90;;;;;;4993694;28;20061;-77
2022/01/16 08:04:51;;;;;;;;;;;5.30;99.90;;;;;;4978797;28;20385;-76
2022/01/16 08:07:17;;;;;;;;;;;5.30;99.90;;;;;;4977589;28;19921;-77
2022/01/16 08:09:43;;;;;;;;;;;5.30;99.90;;;;;;4978977;28;20012;-77
2022/01/16 08:12:12;;;;;;;;;;;5.50;99.90;;;;;;4977885;28;19961;-77
2022/01/16 08:14:38;;;;;;;;;;;5.40;99.90;;;;;;5013935;28;20261;-77
2022/01/16 08:17:03;;;;;;;;;;;5.50;99.90;;;;;;4998099;28;19972;-77
2022/01/16 08:19:29;;;;;;;;;;;5.50;99.90;;;;;;4997292;28;19933;-76
2022/01/16 08:21:55;;;;;;;;;;;5.50;99.90;;;;;;4993981;28;19922;-77
2022/01/16 08:24:20;;;;;;;;;;;5.60;99.90;;;;;;4993878;28;19921;-77
2022/01/16 08:26:46;;;;;;;;;;;6.30;99.90;;;;;;4978317;28;19921;-77
2022/01/16 08:29:12;;;;;;;;;;;5.70;99.90;;;;;;4994774;28;19964;-77
2022/01/16 08:31:37;;;;;;;;;;;5.70;99.90;;;;;;4977829;28;20285;-77
2022/01/16 08:34:03;;;;;;;;;;;5.80;99.90;;;;;;5008881;28;20335;-76
2022/01/16 08:36:28;;;;;;;;;;;5.80;99.90;;;;;;4992821;28;19922;-76
2022/01/16 08:38:54;;;;;;;;;;;5.40;99.90;;;;;;4982405;28;20278;-75
2022/01/16 08:41:20;;;;;;;;;;;5.90;99.90;;;;;;4977645;28;20281;-76
2022/01/16 08:43:46;;;;;;;;;;;5.90;99.90;;;;;;4976996;28;20344;-76
2022/01/16 08:46:13;;;;;;;;;;;5.90;99.90;;;;;;4993404;28;19922;-76
2022/01/16 08:48:38;;;;;;;;;;;5.90;99.90;;;;;;4984048;28;19929;-76
2022/01/16 08:51:04;;;;;;;;;;;6.00;99.90;;;;;;4997232;28;19923;-75
2022/01/16 08:53:29;;;;;;;;;;;6.00;99.90;;;;;;4997156;28;19929;-76
2022/01/16 08:55:55;;;;;;;;;;;6.00;99.90;;;;;;4996705;28;19921;-79
2022/01/16 08:58:21;;;;;;;;;;;6.00;99.90;;;;;;4996059;28;20008;-78
2022/01/16 09:00:48;;;;;;;;;;;6.10;99.90;;;;;;4997317;28;19921;-77
2022/01/16 09:03:14;;;;;;;;;;;6.10;99.90;;;;;;4995971;28;20259;-80
2022/01/16 09:05:39;;;;;;;;;;;6.10;99.90;;;;;;4996919;28;19928;-79
2022/01/16 09:08:05;;;;;;;;;;;6.10;99.90;;;;;;4996867;28;19987;-80
2022/01/16 09:10:30;;;;;;;;;;;6.10;99.90;;;;;;4996398;28;20443;-80
2022/01/16 09:12:57;;;;;;;;;;;6.10;99.90;;;;;;4996878;28;19925;-83
2022/01/16 09:15:23;;;;;;;;;;;6.10;99.90;;;;;;4995882;28;19946;-80
2022/01/16 09:17:48;;;;;;;;;;;6.10;99.90;;;;;;4995909;28;19921;-81
2022/01/16 09:20:17;;;;;;;;;;;6.20;99.90;;;;;;4996555;28;19921;-81
2022/01/16 09:22:52;;;;;;;;;;;6.20;99.90;;;;;;4996569;28;19963;-81
2022/01/16 09:25:20;;;;;;;;;;;6.20;99.90;;;;;;4995723;28;19928;-80
2022/01/16 09:27:46;;;;;;;;;;;6.10;99.90;;;;;;4996726;28;20281;-78
2022/01/16 09:30:12;;;;;;;;;;;6.20;99.90;;;;;;4995144;28;19921;-79
2022/01/16 09:32:38;;;;;;;;;;;6.20;99.90;;;;;;4995968;28;19922;-79
2022/01/16 09:35:04;;;;;;;;;;;6.20;99.90;;;;;;4996277;28;19924;-79
2022/01/16 09:37:31;;;;;;;;;;;6.30;99.90;;;;;;4992202;28;20377;-83
2022/01/16 09:40:00;;;;;;;;;;;5.30;99.90;;;;;;4976106;28;20372;-80
2022/01/16 09:42:29;;;;;;;;;;;6.30;99.90;;;;;;4976956;28;20277;-83
2022/01/16 09:44:55;;;;;;;;;;;6.30;99.90;;;;;;4977019;28;19925;-82
2022/01/16 09:47:21;;;;;;;;;;;6.40;99.90;;;;;;4997186;28;19921;-77
2022/01/16 09:49:46;;;;;;;;;;;6.30;99.90;;;;;;5012506;28;20319;-84
2022/01/16 09:52:12;;;;;;;;;;;6.40;99.90;;;;;;5012247;28;19918;-78
2022/01/16 09:54:38;;;;;;;;;;;6.50;99.90;;;;;;5012513;28;19921;-83
2022/01/16 09:57:04;;;;;;;;;;;6.50;99.90;;;;;;5015777;28;20320;-78
2022/01/16 09:59:29;;;;;;;;;;;6.50;99.90;;;;;;5013378;28;19925;-82
2022/01/16 10:01:56;;;;;;;;;;;6.30;99.90;;;;;;5015719;28;20019;-79
2022/01/16 10:04:32;;;;;;;;;;;6.60;99.90;;;;;;5015088;28;20033;-78
2022/01/16 10:07:02;;;;;;;;;;;6.60;99.90;;;;;;5015237;28;19921;-77
2022/01/16 10:09:28;;;;;;;;;;;6.60;99.90;;;;;;5006551;28;20511;-74
2022/01/16 10:11:58;;;;;;;;;;;6.60;99.90;;;;;;5010040;28;19925;-77
2022/01/16 10:14:36;;;;;;;;;;;6.60;99.90;;;;;;5003554;28;20031;-88
2022/01/16 10:17:12;;;;;;;;;;;6.60;99.90;;;;;;5011416;28;19921;-78
2022/01/16 10:19:38;;;;;;;;;;;6.60;99.90;;;;;;4998311;28;20027;-82
2022/01/16 10:22:04;;;;;;;;;;;6.60;99.90;;;;;;5011634;28;20011;-79
2022/01/16 10:24:33;;;;;;;;;;;6.60;99.90;;;;;;5004276;28;19921;-76
2022/01/16 10:27:10;;;;;;;;;;;6.70;99.90;;;;;;5006745;28;19960;-78
2022/01/16 10:29:36;;;;;;;;;;;6.60;99.90;;;;;;5013132;28;19925;-74
2022/01/16 10:32:15;;;;;;;;;;;6.70;99.90;;;;;;5014825;28;19921;-79
2022/01/16 10:34:41;;;;;;;;;;;6.70;99.90;;;;;;5011200;28;19921;-77
2022/01/16 10:37:39;;;;;;;;;;;6.70;99.90;;;;;;4999943;28;19948;-78
2022/01/16 10:40:06;;;;;;;;;;;6.70;99.90;;;;;;5000198;28;20015;-77
2022/01/16 10:42:33;;;;;;;;;;;6.60;99.90;;;;;;5012231;28;19917;-80
2022/01/16 10:45:12;;;;;;;;;;;6.70;99.90;;;;;;5003765;28;19926;-82
2022/01/16 10:47:47;;;;;;;;;;;6.70;99.90;;;;;;5029566;28;19955;-78
2022/01/16 10:50:15;;;;;;;;;;;6.70;99.90;;;;;;4999480;28;19922;-82
2022/01/16 10:52:56;;;;;;;;;;;6.70;99.90;;;;;;5005085;28;20381;-78
2022/01/16 10:55:33;;;;;;;;;;;6.70;99.90;;;;;;5004578;28;19936;-77
2022/01/16 10:58:19;;;;;;;;;;;6.70;99.90;;;;;;5009547;28;20134;-80
2022/01/16 11:00:52;;;;;;;;;;;6.70;99.90;;;;;;5003615;28;19921;-80
2022/01/16 11:03:18;;;;;;;;;;;6.70;99.90;;;;;;5006977;28;19940;-77
2022/01/16 11:05:44;;;;;;;;;;;6.80;99.90;;;;;;5007310;28;20361;-77
2022/01/16 11:08:12;;;;;;;;;;;6.80;99.90;;;;;;5010213;28;19921;-81
2022/01/16 11:10:39;;;;;;;;;;;6.80;99.90;;;;;;5011264;28;19990;-75
2022/01/16 11:13:08;;;;;;;;;;;6.90;99.90;;;;;;5003021;28;19922;-77
2022/01/16 11:15:34;;;;;;;;;;;6.90;99.90;;;;;;5014565;28;19972;-80
2022/01/16 11:18:00;;;;;;;;;;;6.90;99.90;;;;;;5014194;28;19926;-80
2022/01/16 11:20:29;;;;;;;;;;;7.00;99.90;;;;;;5007015;28;19952;-85
2022/01/16 11:25:31;;;;;;;;;;;7.00;99.90;;;;;;5030719;28;19921;-79
2022/01/16 11:28:02;;;;;;;;;;;7.70;99.90;;;;;;4999981;28;20376;-85
2022/01/16 11:30:28;;;;;;;;;;;7.10;99.90;;;;;;4998598;28;20360;-81
2022/01/16 11:32:54;;;;;;;;;;;8.00;99.90;;;;;;5011151;28;19921;-80
2022/01/16 11:35:20;;;;;;;;;;;7.10;99.90;;;;;;5013583;28;19925;-81
2022/01/16 11:37:49;;;;;;;;;;;7.10;99.90;;;;;;4997848;28;19964;-81
2022/01/16 11:40:19;;;;;;;;;;;7.10;99.90;;;;;;5017207;28;19929;-78
2022/01/16 11:42:44;;;;;;;;;;;7.10;99.90;;;;;;5034811;28;19921;-79
2022/01/16 11:45:10;;;;;;;;;;;7.10;99.90;;;;;;5011957;28;19994;-82
2022/01/16 11:47:35;;;;;;;;;;;7.10;99.90;;;;;;5015046;28;19927;-82
2022/01/16 11:50:08;;;;;;;;;;;7.30;99.90;;;;;;5014674;28;20369;-82
2022/01/16 11:52:41;;;;;;;;;;;7.10;99.90;;;;;;5014298;28;19920;-83
2022/01/16 11:55:08;;;;;;;;;;;7.10;99.90;;;;;;5012314;28;19928;-79
2022/01/16 11:57:35;;;;;;;;;;;7.20;99.90;;;;;;5015399;28;19924;-77
2022/01/16 12:00:14;;;;;;;;;;;7.20;99.90;;;;;;5016936;28;19921;-77
2022/01/16 12:02:44;;;;;;;;;;;7.20;99.90;;;;;;5013622;28;19921;-78
2022/01/16 12:05:10;;;;;;;;;;;7.20;99.90;;;;;;5011321;28;19928;-78
2022/01/16 12:07:35;;;;;;;;;;;7.20;99.90;;;;;;5033457;28;20166;-81
2022/01/16 12:10:03;;;;;;;;;;;7.20;99.90;;;;;;5014136;28;19933;-81
2022/01/16 12:12:29;;;;;;;;;;;7.20;99.90;;;;;;5024313;28;20023;-81
2022/01/16 12:15:05;;;;;;;;;;;7.20;99.90;;;;;;5014716;28;19918;-89
2022/01/16 12:20:11;;;;;;;;;;;7.20;99.90;;;;;;5020723;28;19925;-79
2022/01/16 12:22:42;;;;;;;;;;;7.20;99.90;;;;;;5011445;28;19932;-88
2022/01/16 12:25:09;;;;;;;;;;;7.20;99.90;;;;;;5014573;28;20312;-79
2022/01/16 12:27:48;;;;;;;;;;;7.20;99.90;;;;;;5014763;28;20365;-79
2022/01/16 12:30:13;;;;;;;;;;;7.20;99.90;;;;;;5033473;28;20373;-76
2022/01/16 12:32:56;;;;;;;;;;;7.20;99.90;;;;;;5012105;28;19926;-79
2022/01/16 12:35:40;;;;;;;;;;;7.20;99.90;;;;;;5009743;28;20016;-79
2022/01/16 12:38:07;;;;;;;;;;;7.40;99.90;;;;;;5012233;28;19929;-77
2022/01/16 12:40:32;;;;;;;;;;;7.10;99.90;;;;;;5006609;28;19928;-79
2022/01/16 12:43:00;;;;;;;;;;;7.10;99.90;;;;;;5011983;28;19921;-84
2022/01/16 12:45:25;;;;;;;;;;;7.10;99.90;;;;;;5005893;28;19964;-80
2022/01/16 12:47:51;;;;;;;;;;;7.10;99.90;;;;;;5010864;28;20424;-82
2022/01/16 12:50:17;;;;;;;;;;;7.30;99.90;;;;;;5003468;28;19936;-81
2022/01/16 12:52:46;;;;;;;;;;;7.10;99.90;;;;;;5012974;28;19917;-81
2022/01/16 12:55:12;;;;;;;;;;;7.10;99.90;;;;;;5011408;28;19920;-79
2022/01/16 12:57:37;;;;;;;;;;;7.10;99.90;;;;;;5014872;28;20120;-85
2022/01/16 13:00:12;;;;;;;;;;;7.10;99.90;;;;;;5015401;28;19928;-87
2022/01/16 13:02:37;;;;;;;;;;;7.10;99.90;;;;;;5012097;28;19992;-84
2022/01/16 13:05:03;;;;;;;;;;;7.10;99.90;;;;;;5012879;28;19925;-79
2022/01/16 13:07:29;;;;;;;;;;;7.10;99.90;;;;;;5003270;28;19921;-77
2022/01/16 13:09:55;;;;;;;;;;;8.00;99.90;;;;;;5004272;28;19925;-78
2022/01/16 13:12:22;;;;;;;;;;;7.10;99.90;;;;;;5010018;28;19927;-80
2022/01/16 13:14:47;;;;;;;;;;;7.20;99.90;;;;;;5015462;28;20351;-79
2022/01/16 13:17:14;;;;;;;;;;;7.20;99.90;;;;;;5011954;28;19960;-79
2022/01/16 13:22:15;;;;;;;;;;;7.30;99.90;;;;;;5015271;28;20418;-78
2022/01/16 13:24:51;;;;;;;;;;;7.40;99.90;;;;;;5008557;28;19927;-81
2022/01/16 13:27:18;;;;;;;;;;;7.40;99.90;;;;;;5012070;28;19921;-79
2022/01/16 13:29:51;;;;;;;;;;;7.40;99.90;;;;;;4999231;28;19956;-80
2022/01/16 13:32:27;;;;;;;;;;;7.40;99.90;;;;;;5011647;28;20258;-82
2022/01/16 13:34:54;;;;;;;;;;;7.40;99.90;;;;;;5007118;28;20001;-85
2022/01/16 13:37:37;;;;;;;;;;;7.30;99.90;;;;;;5007915;28;19932;-82
2022/01/16 13:40:08;;;;;;;;;;;7.20;99.90;;;;;;5011123;28;20016;-82
2022/01/16 13:42:41;;;;;;;;;;;7.20;99.90;;;;;;5010768;28;19921;-82
2022/01/16 13:45:19;;;;;;;;;;;7.10;99.90;;;;;;5004604;28;19972;-82
2022/01/16 13:47:53;;;;;;;;;;;7.10;99.90;;;;;;4995004;28;19929;-80
2022/01/16 13:50:20;;;;;;;;;;;7.00;99.90;;;;;;5011275;28;19921;-75
2022/01/16 13:52:49;;;;;;;;;;;8.30;99.90;;;;;;5006941;28;20399;-80
2022/01/16 13:55:15;;;;;;;;;;;7.00;99.90;;;;;;5011590;28;20389;-79
2022/01/16 13:57:40;;;;;;;;;;;6.90;99.90;;;;;;5013553;28;19929;-81
2022/01/16 14:00:07;;;;;;;;;;;7.00;99.90;;;;;;5010956;28;19995;-77
2022/01/16 14:02:32;;;;;;;;;;;7.00;99.90;;;;;;5004506;28;20004;-80
2022/01/16 14:04:58;;;;;;;;;;;7.00;99.90;;;;;;5010039;28;20153;-78
2022/01/16 14:07:24;;;;;;;;;;;7.00;99.90;;;;;;5011472;28;19921;-78
2022/01/16 14:09:55;;;;;;;;;;;6.90;99.90;;;;;;5011321;28;19929;-81
2022/01/16 14:12:20;;;;;;;;;;;6.90;99.90;;;;;;5002311;28;20024;-75
2022/01/16 14:14:48;;;;;;;;;;;6.90;99.90;;;;;;5013671;28;20008;-80
2022/01/16 14:22:17;;;;;;;;;;;7.00;99.90;;;;;;5014525;28;19921;-80
2022/01/16 14:24:47;;;;;;;;;;;7.00;99.90;;;;;;5025030;28;19971;-76
2022/01/16 14:27:16;;;;;;;;;;;7.00;99.90;;;;;;4997467;28;19968;-78
2022/01/16 14:29:43;;;;;;;;;;;6.90;99.90;;;;;;5011333;28;20369;-80
2022/01/16 14:32:10;;;;;;;;;;;7.40;99.90;;;;;;5010368;28;20389;-75
2022/01/16 14:34:36;;;;;;;;;;;6.90;99.90;;;;;;5022522;28;19928;-75
2022/01/16 14:37:03;;;;;;;;;;;6.90;99.90;;;;;;5011534;28;19921;-80
2022/01/16 14:39:28;;;;;;;;;;;6.80;99.90;;;;;;5010558;28;19944;-77
2022/01/16 14:41:54;;;;;;;;;;;6.70;99.90;;;;;;5004011;28;20377;-77
2022/01/16 14:44:20;;;;;;;;;;;6.70;99.90;;;;;;5002627;28;20288;-76
2022/01/16 14:46:46;;;;;;;;;;;6.60;99.90;;;;;;5026674;28;19921;-80